createdAt,value
2022-09-12T00:00:25.417Z,92146.22
2022-09-12T00:03:12.967Z,92139.72
2022-09-12T00:06:02.538Z,92147.41
2022-09-12T00:08:50.071Z,92138.97
2022-09-12T00:11:37.623Z,92138.41
2022-09-12T00:14:25.163Z,92136.38
2022-09-12T00:17:12.734Z,92136.06
2022-09-12T00:20:00.289Z,92142.50
2022-09-12T00:22:47.865Z,92135.72
2022-09-12T00:25:35.410Z,92134.44
2022-09-12T00:28:22.990Z,92136.97
2022-09-12T00:31:10.513Z,92130.81
2022-09-12T00:33:58.095Z,92137.88
2022-09-12T00:36:45.661Z,92131.19
2022-09-12T00:39:33.231Z,92129.66
2022-09-12T00:42:20.785Z,92131.59
2022-09-12T00:45:08.354Z,92132.38
2022-09-12T00:47:55.937Z,92133.22
2022-09-12T00:50:43.468Z,92131.88
2022-09-12T00:53:31.034Z,92124.78
2022-09-12T00:56:18.586Z,92124.41
2022-09-12T00:59:06.146Z,92126.41
2022-09-12T01:01:53.775Z,92127.53
2022-09-12T01:04:41.497Z,92123.00
2022-09-12T01:07:31.036Z,92117.38
2022-09-12T01:10:18.596Z,92116.63
2022-09-12T01:13:06.312Z,92118.91
2022-09-12T01:15:53.862Z,92110.56
2022-09-12T01:18:41.677Z,92109.81
2022-09-12T01:21:29.288Z,92110.94
2022-09-12T01:24:16.903Z,92113.19
2022-09-12T01:27:04.441Z,92110.94
2022-09-12T01:29:52.008Z,92110.94
2022-09-12T01:32:39.543Z,92106.06
2022-09-12T01:35:27.213Z,92107.94
2022-09-12T01:38:14.798Z,92107.19
2022-09-12T01:41:02.370Z,92107.94
2022-09-12T01:43:49.921Z,92109.47
2022-09-12T01:46:37.484Z,92102.28
2022-09-12T01:49:25.016Z,92099.59
2022-09-12T01:52:12.630Z,92103.69
2022-09-12T01:55:00.173Z,92099.22
2022-09-12T01:57:47.734Z,92099.59
2022-09-12T02:00:35.295Z,92097.72
2022-09-12T02:03:22.871Z,92086.41
2022-09-12T02:06:10.417Z,92093.94
2022-09-12T02:08:58.001Z,92093.56
2022-09-12T02:11:45.557Z,92086.41
2022-09-12T02:14:33.119Z,92092.44
2022-09-12T02:17:20.700Z,92087.16
2022-09-12T02:20:08.269Z,92088.66
2022-09-12T02:22:55.803Z,92083.72
2022-09-12T02:25:43.377Z,92082.97
2022-09-12T02:28:30.920Z,92088.25
2022-09-12T02:31:20.481Z,92081.13
2022-09-12T02:34:08.026Z,92089.44
2022-09-12T02:36:55.671Z,92080.38
2022-09-12T02:39:45.371Z,92079.59
2022-09-12T02:42:33.199Z,92081.88
2022-09-12T02:45:20.813Z,92076.22
2022-09-12T02:48:08.347Z,92076.44
2022-09-12T02:50:55.903Z,92072.25
2022-09-12T02:53:43.557Z,92077.25
2022-09-12T02:56:31.110Z,92081.13
2022-09-12T02:59:18.689Z,92072.06
2022-09-12T03:02:06.256Z,92074.31
2022-09-12T03:04:53.849Z,92077.31
2022-09-12T03:07:41.403Z,92075.03
2022-09-12T03:10:28.973Z,92077.69
2022-09-12T03:13:16.527Z,92081.50
2022-09-12T03:16:04.116Z,92086.41
2022-09-12T03:18:51.659Z,92076.91
2022-09-12T03:21:39.216Z,92075.25
2022-09-12T03:24:26.765Z,92078.78
2022-09-12T03:27:14.336Z,92083.38
2022-09-12T03:30:01.882Z,92078.09
2022-09-12T03:32:49.536Z,92073.19
2022-09-12T03:35:37.089Z,92068.25
2022-09-12T03:38:24.644Z,92073.50
2022-09-12T03:41:12.201Z,92072.78
2022-09-12T03:43:59.751Z,92062.59
2022-09-12T03:46:47.309Z,92068.66
2022-09-12T03:49:34.873Z,92065.25
2022-09-12T03:52:22.478Z,92061.47
2022-09-12T03:55:10.047Z,92063.28
2022-09-12T03:57:57.575Z,92070.53
2022-09-12T04:00:45.221Z,92064.88
2022-09-12T04:03:32.814Z,92068.63
2022-09-12T04:06:20.357Z,92067.88
2022-09-12T04:09:07.909Z,92073.81
2022-09-12T04:11:55.480Z,92066.91
2022-09-12T04:14:43.062Z,92064.72
2022-09-12T04:17:30.624Z,92065.25
2022-09-12T04:20:18.182Z,92075.97
2022-09-12T04:23:05.741Z,92075.44
2022-09-12T04:25:53.289Z,92070.66
2022-09-12T04:28:40.862Z,92073.19
2022-09-12T04:31:28.392Z,92069.09
2022-09-12T04:34:15.977Z,92070.75
2022-09-12T04:37:03.530Z,92067.44
2022-09-12T04:39:51.118Z,92068.19
2022-09-12T04:42:38.706Z,92076.75
2022-09-12T04:45:26.290Z,92068.09
2022-09-12T04:48:13.828Z,92079.78
2022-09-12T04:51:01.398Z,92066.66
2022-09-12T04:53:48.927Z,92072.31
2022-09-12T04:56:36.484Z,92079.22
2022-09-12T04:59:24.065Z,92078.47
2022-09-12T05:02:11.638Z,92075.50
2022-09-12T05:04:59.338Z,92065.84
2022-09-12T05:07:48.851Z,92075.88
2022-09-12T05:10:36.414Z,92077.75
2022-09-12T05:13:23.966Z,92079.34
2022-09-12T05:16:11.594Z,92069.28
2022-09-12T05:18:59.158Z,92068.88
2022-09-12T05:21:46.717Z,92074.56
2022-09-12T05:24:34.259Z,92080.16
2022-09-12T05:27:21.803Z,92075.81
2022-09-12T05:30:09.358Z,92070.16
2022-09-12T05:32:56.909Z,92072.03
2022-09-12T05:35:44.490Z,92074.28
2022-09-12T05:38:32.030Z,92076.97
2022-09-12T05:41:24.192Z,92073.16
2022-09-12T05:44:12.493Z,92084.03
2022-09-12T05:47:00.148Z,92080.00
2022-09-12T05:49:47.695Z,92087.91
2022-09-12T05:52:35.272Z,92084.81
2022-09-12T05:55:22.818Z,92087.44
2022-09-12T05:58:10.445Z,92079.50
2022-09-12T06:00:58.060Z,92085.22
2022-09-12T06:03:45.640Z,92086.03
2022-09-12T06:06:35.207Z,92090.56
2022-09-12T06:09:22.791Z,92092.41
2022-09-12T06:12:10.368Z,92098.09
2022-09-12T06:14:57.941Z,92091.75
2022-09-12T06:17:48.341Z,92084.47
2022-09-12T06:20:38.915Z,92091.44
2022-09-12T06:23:26.455Z,92090.03
2022-09-12T06:26:14.017Z,92096.50
2022-09-12T06:29:01.562Z,92090.09
2022-09-12T06:31:49.204Z,92091.63
2022-09-12T06:34:38.749Z,92087.56
2022-09-12T06:37:26.299Z,92084.19
2022-09-12T06:40:13.877Z,92082.16
2022-09-12T06:43:01.465Z,92086.06
2022-09-12T06:45:49.043Z,92084.47
2022-09-12T06:48:41.571Z,92083.34
2022-09-12T06:51:29.573Z,92075.28
2022-09-12T06:54:19.131Z,92082.34
2022-09-12T06:57:06.674Z,92076.41
2022-09-12T06:59:54.245Z,92076.78
2022-09-12T07:02:41.840Z,92086.50
2022-09-12T07:05:29.425Z,92085.69
2022-09-12T07:08:16.980Z,92091.03
2022-09-12T07:11:06.559Z,92090.69
2022-09-12T07:13:54.120Z,92092.81
2022-09-12T07:16:43.700Z,92091.03
2022-09-12T07:19:31.302Z,92098.13
2022-09-12T07:22:18.876Z,92089.69
2022-09-12T07:25:06.420Z,92081.19
2022-09-12T07:27:54.023Z,92084.69
2022-09-12T07:30:41.577Z,92083.69
2022-09-12T07:33:29.153Z,92076.72
2022-09-12T07:36:16.718Z,92079.03
2022-09-12T07:39:04.275Z,92073.75
2022-09-12T07:41:53.795Z,92084.19
2022-09-12T07:44:41.372Z,92087.50
2022-09-12T07:47:28.895Z,92084.41
2022-09-12T07:50:16.566Z,92086.63
2022-09-12T07:53:04.104Z,92087.03
2022-09-12T07:55:51.673Z,92090.69
2022-09-12T07:58:39.241Z,92090.25
2022-09-12T08:01:26.865Z,92095.63
2022-09-12T08:04:14.473Z,92092.22
2022-09-12T08:07:02.012Z,92097.00
2022-09-12T08:09:49.586Z,92091.78
2022-09-12T08:12:37.117Z,92099.16
2022-09-12T08:15:24.701Z,92102.44
2022-09-12T08:18:12.249Z,92104.13
2022-09-12T08:20:59.895Z,92106.84
2022-09-12T08:23:47.565Z,92096.94
2022-09-12T08:26:35.245Z,92104.00
2022-09-12T08:29:24.763Z,92095.97
2022-09-12T08:32:12.327Z,92095.75
2022-09-12T08:34:59.874Z,92099.91
2022-09-12T08:37:47.453Z,92115.44
2022-09-12T08:40:35.012Z,92132.69
2022-09-12T08:43:22.604Z,92132.31
2022-09-12T08:46:10.282Z,92122.84
2022-09-12T08:48:57.888Z,92119.38
2022-09-12T08:51:45.435Z,92117.81
2022-09-12T08:54:33.046Z,92111.28
2022-09-12T08:57:20.604Z,92106.69
2022-09-12T09:00:08.184Z,92118.22
2022-09-12T09:02:55.827Z,92119.13
2022-09-12T09:05:43.418Z,92119.38
2022-09-12T09:08:30.957Z,92125.63
2022-09-12T09:11:18.516Z,92120.19
2022-09-12T09:14:06.054Z,92130.69
2022-09-12T09:16:53.607Z,92125.69
2022-09-12T09:19:41.136Z,92119.84
2022-09-12T09:22:28.708Z,92124.28
2022-09-12T09:25:19.702Z,92115.66
2022-09-12T09:28:09.733Z,92111.34
2022-09-12T09:30:57.308Z,92112.69
2022-09-12T09:33:44.960Z,92111.44
2022-09-12T09:36:32.532Z,92113.31
2022-09-12T09:39:20.085Z,92109.44
2022-09-12T09:42:07.645Z,92109.75
2022-09-12T09:44:55.211Z,92109.63
2022-09-12T09:47:42.756Z,92114.22
2022-09-12T09:50:30.327Z,92111.41
2022-09-12T09:53:17.902Z,92112.59
2022-09-12T09:56:05.460Z,92105.97
2022-09-12T09:58:52.999Z,92104.94
2022-09-12T10:01:40.583Z,92103.03
2022-09-12T10:04:28.223Z,92105.53
2022-09-12T10:07:15.812Z,92092.84
2022-09-12T10:10:03.381Z,92098.88
2022-09-12T10:12:50.935Z,92096.19
2022-09-12T10:15:38.543Z,92102.50
2022-09-12T10:18:26.130Z,92094.06
2022-09-12T10:21:13.677Z,92092.28
2022-09-12T10:24:01.252Z,92092.66
2022-09-12T10:26:49.992Z,92082.56
2022-09-12T10:29:39.811Z,92080.09
2022-09-12T10:32:30.651Z,92090.00
2022-09-12T10:35:18.726Z,92082.19
2022-09-12T10:38:06.270Z,92081.03
2022-09-12T10:40:53.981Z,92088.19
2022-09-12T10:43:41.574Z,92092.25
2022-09-12T10:46:29.247Z,92095.13
2022-09-12T10:49:16.804Z,92086.44
2022-09-12T10:52:04.369Z,92087.22
2022-09-12T10:54:51.902Z,92084.75
2022-09-12T10:57:39.460Z,92087.09
2022-09-12T11:00:27.041Z,92083.78
2022-09-12T11:03:16.617Z,92084.34
2022-09-12T11:06:04.202Z,92085.53
2022-09-12T11:08:51.758Z,92081.38
2022-09-12T11:11:39.297Z,92083.06
2022-09-12T11:14:26.866Z,92077.03
2022-09-12T11:17:14.420Z,92081.28
2022-09-12T11:20:01.981Z,92070.38
2022-09-12T11:22:49.516Z,92073.06
2022-09-12T11:25:37.074Z,92075.53
2022-09-12T11:28:24.612Z,92071.41
2022-09-12T11:31:12.198Z,92068.84
2022-09-12T11:33:59.899Z,92071.88
2022-09-12T11:36:47.464Z,92071.41
2022-09-12T11:39:35.011Z,92063.19
2022-09-12T11:42:22.561Z,92062.44
2022-09-12T11:45:10.118Z,92063.22
2022-09-12T11:47:57.644Z,92060.66
2022-09-12T11:50:45.286Z,92056.13
2022-09-12T11:53:32.811Z,92062.19
2022-09-12T11:56:20.356Z,92066.34
2022-09-12T11:59:02.756Z,92063.53
2022-09-12T12:01:48.920Z,92058.91
2022-09-12T12:04:36.536Z,92057.94
2022-09-12T12:07:24.076Z,92056.38
2022-09-12T12:10:11.637Z,92051.88
2022-09-12T12:13:08.726Z,92052.19
2022-09-12T12:16:01.703Z,92049.03
2022-09-12T12:18:49.309Z,92055.25
2022-09-12T12:21:36.877Z,92052.78
2022-09-12T12:24:24.437Z,92047.59
2022-09-12T12:27:11.987Z,92050.41
2022-09-12T12:29:59.549Z,92044.69
2022-09-12T12:32:47.082Z,92049.03
2022-09-12T12:35:34.634Z,92043.50
2022-09-12T12:38:22.166Z,92034.34
2022-09-12T12:41:09.711Z,92030.34
2022-09-12T12:43:57.247Z,92027.75
2022-09-12T12:46:47.195Z,92019.03
2022-09-12T12:49:34.793Z,92020.47
2022-09-12T12:52:22.364Z,92027.03
2022-09-12T12:55:09.905Z,92013.59
2022-09-12T12:57:57.567Z,92006.38
2022-09-12T13:00:45.150Z,92011.63
2022-09-12T13:03:32.716Z,92012.22
2022-09-12T13:06:20.280Z,92001.09
2022-09-12T13:09:07.855Z,92009.84
2022-09-12T13:11:55.423Z,92009.06
2022-09-12T13:14:42.976Z,92011.53
2022-09-12T13:17:30.537Z,92010.09
2022-09-12T13:20:27.905Z,92012.06
2022-09-12T13:23:16.099Z,92006.44
2022-09-12T13:26:03.655Z,92013.38
2022-09-12T13:28:51.206Z,92002.63
2022-09-12T13:31:38.790Z,91993.63
2022-09-12T13:34:26.347Z,91993.81
2022-09-12T13:36:53.579Z,91992.88
2022-09-12T13:39:39.838Z,91991.28
2022-09-12T13:42:27.555Z,91993.00
2022-09-12T13:45:15.071Z,91989.00
2022-09-12T13:48:02.621Z,91996.63
2022-09-12T13:50:50.158Z,91986.53
2022-09-12T13:53:37.800Z,91988.69
2022-09-12T13:56:25.323Z,91987.72
2022-09-12T13:59:12.882Z,91979.69
2022-09-12T14:02:00.538Z,91975.53
2022-09-12T14:04:48.107Z,91971.53
2022-09-12T14:07:35.657Z,91968.28
2022-09-12T14:10:23.181Z,91965.47
2022-09-12T14:13:10.741Z,91960.28
2022-09-12T14:15:58.327Z,91961.31
2022-09-12T14:18:45.946Z,91958.59
2022-09-12T14:21:33.530Z,91959.88
2022-09-12T14:24:21.069Z,91951.78
2022-09-12T14:27:08.644Z,91955.16
2022-09-12T14:29:56.226Z,91950.50
2022-09-12T14:32:39.136Z,91949.78
2022-09-12T14:35:26.690Z,91952.66
2022-09-12T14:38:14.258Z,91949.94
2022-09-12T14:41:01.839Z,91954.84
2022-09-12T14:43:49.369Z,91943.78
2022-09-12T14:46:36.963Z,91944.06
2022-09-12T14:49:24.546Z,91945.19
2022-09-12T14:52:12.102Z,91941.63
2022-09-12T14:54:59.623Z,91939.22
2022-09-12T14:57:47.213Z,91934.59
2022-09-12T15:00:34.767Z,91934.56
2022-09-12T15:03:22.449Z,91939.59
2022-09-12T15:06:09.980Z,91939.88
2022-09-12T15:08:57.631Z,91942.75
2022-09-12T15:11:45.161Z,91937.25
2022-09-12T15:14:32.726Z,91940.50
2022-09-12T15:17:20.275Z,91950.72
2022-09-12T15:20:07.841Z,91947.75
2022-09-12T15:22:55.374Z,91944.19
2022-09-12T15:25:42.941Z,91942.78
2022-09-12T15:28:30.498Z,91934.03
2022-09-12T15:31:18.064Z,91936.13
2022-09-12T15:34:05.673Z,91947.00
2022-09-12T15:36:53.229Z,91938.28
2022-09-12T15:39:40.808Z,91940.59
2022-09-12T15:42:28.514Z,91940.06
2022-09-12T15:45:16.081Z,91937.47
2022-09-12T15:48:03.685Z,91931.97
2022-09-12T15:50:51.215Z,91926.81
2022-09-12T15:53:38.778Z,91922.03
2022-09-12T15:56:26.325Z,91923.69
2022-09-12T15:59:13.888Z,91914.34
2022-09-12T16:02:01.523Z,91915.50
2022-09-12T16:04:49.103Z,91920.50
2022-09-12T16:07:36.652Z,91911.41
2022-09-12T16:10:24.200Z,91919.31
2022-09-12T16:13:11.773Z,91919.13
2022-09-12T16:15:59.413Z,91922.38
2022-09-12T16:18:46.997Z,91921.34
2022-09-12T16:21:34.663Z,91918.28
2022-09-12T16:24:22.215Z,91914.09
2022-09-12T16:27:09.759Z,91921.53
2022-09-12T16:29:57.343Z,91913.34
2022-09-12T16:32:44.945Z,91912.41
2022-09-12T16:35:32.484Z,91906.28
2022-09-12T16:38:20.062Z,91906.00
2022-09-12T16:41:07.617Z,91902.53
2022-09-12T16:43:55.204Z,91899.56
2022-09-12T16:46:42.822Z,91892.69
2022-09-12T16:49:30.446Z,91891.47
2022-09-12T16:52:18.007Z,91890.81
2022-09-12T16:55:05.556Z,91890.22
2022-09-12T16:57:53.115Z,91886.38
2022-09-12T17:00:40.673Z,91874.56
2022-09-12T17:03:28.238Z,91886.72
2022-09-12T17:06:15.779Z,91885.50
2022-09-12T17:09:03.329Z,91884.22
2022-09-12T17:11:50.894Z,91879.75
2022-09-12T17:14:38.439Z,91882.06
2022-09-12T17:17:27.986Z,91877.47
2022-09-12T17:20:15.540Z,91878.50
2022-09-12T17:23:09.502Z,91883.19
2022-09-12T17:25:57.386Z,91880.47
2022-09-12T17:28:46.943Z,91881.03
2022-09-12T17:31:34.580Z,91884.81
2022-09-12T17:34:22.237Z,91880.84
2022-09-12T17:37:09.764Z,91884.72
2022-09-12T17:39:57.373Z,91890.31
2022-09-12T17:42:44.981Z,91887.13
2022-09-12T17:45:32.609Z,91891.94
2022-09-12T17:48:20.155Z,91883.38
2022-09-12T17:51:07.707Z,91884.78
2022-09-12T17:53:55.245Z,91882.63
2022-09-12T17:56:42.794Z,91886.13
2022-09-12T17:59:30.335Z,91884.28
2022-09-12T18:02:17.907Z,91889.13
2022-09-12T18:05:05.441Z,91887.09
2022-09-12T18:07:55.095Z,91888.88
2022-09-12T18:10:42.633Z,91889.69
2022-09-12T18:13:30.200Z,91892.31
2022-09-12T18:16:17.796Z,91886.00
2022-09-12T18:19:05.375Z,91896.94
2022-09-12T18:21:52.905Z,91888.75
2022-09-12T18:24:40.454Z,91901.09
2022-09-12T18:27:27.998Z,91896.47
2022-09-12T18:30:21.459Z,91900.72
2022-09-12T18:33:09.267Z,91908.00
2022-09-12T18:35:58.839Z,91906.00
2022-09-12T18:38:46.395Z,91912.97
2022-09-12T18:41:33.958Z,91912.41
2022-09-12T18:44:21.506Z,91908.16
2022-09-12T18:47:09.060Z,91911.16
2022-09-12T18:49:56.583Z,91922.53
2022-09-12T18:52:44.191Z,91927.66
2022-09-12T18:55:31.771Z,91935.78
2022-09-12T18:58:21.351Z,91927.19
2022-09-12T19:01:09.558Z,91929.88
2022-09-12T19:03:57.217Z,91935.91
2022-09-12T19:06:44.798Z,91929.31
2022-09-12T19:09:32.339Z,91930.44
2022-09-12T19:12:19.991Z,91926.56
2022-09-12T19:15:07.537Z,91934.72
2022-09-12T19:17:55.095Z,91933.44
2022-09-12T19:20:42.640Z,91925.44
2022-09-12T19:23:30.261Z,91924.00
2022-09-12T19:26:17.796Z,91926.16
2022-09-12T19:29:05.466Z,91938.88
2022-09-12T19:31:53.005Z,91934.63
2022-09-12T19:34:40.558Z,91931.81
2022-09-12T19:37:28.198Z,91934.28
2022-09-12T19:40:15.792Z,91927.75
2022-09-12T19:43:03.400Z,91937.06
2022-09-12T19:45:50.955Z,91937.50
2022-09-12T19:48:38.620Z,91934.50
2022-09-12T19:51:26.156Z,91943.50
2022-09-12T19:54:13.739Z,91938.13
2022-09-12T19:57:01.291Z,91936.63
2022-09-12T19:59:48.870Z,91935.13
2022-09-12T20:02:36.444Z,91937.31
2022-09-12T20:05:24.053Z,91929.91
2022-09-12T20:08:11.599Z,91938.78
2022-09-12T20:10:59.161Z,91950.50
2022-09-12T20:13:46.739Z,91947.22
2022-09-12T20:16:34.360Z,91954.25
2022-09-12T20:19:21.925Z,91949.44
2022-09-12T20:22:09.487Z,91948.47
2022-09-12T20:24:57.037Z,91952.69
2022-09-12T20:27:44.603Z,91955.78
2022-09-12T20:30:32.139Z,91956.06
2022-09-12T20:33:19.699Z,91950.97
2022-09-12T20:36:07.279Z,91950.25
2022-09-12T20:38:54.933Z,91944.63
2022-09-12T20:41:44.468Z,91938.91
2022-09-12T20:44:32.041Z,91935.50
2022-09-12T20:47:19.621Z,91935.06
2022-09-12T20:50:07.259Z,91932.34
2022-09-12T20:52:54.793Z,91928.94
2022-09-12T20:55:42.409Z,91930.59
2022-09-12T20:58:29.982Z,91936.81
2022-09-12T21:01:17.617Z,91934.69
2022-09-12T21:04:05.196Z,91935.72
2022-09-12T21:06:52.791Z,91932.38
2022-09-12T21:09:40.350Z,91934.31
2022-09-12T21:12:29.916Z,91936.50
2022-09-12T21:15:17.453Z,91934.03
2022-09-12T21:18:05.213Z,91938.34
2022-09-12T21:20:52.761Z,91942.38
2022-09-12T21:23:40.322Z,91939.22
2022-09-12T21:26:27.881Z,91942.69
2022-09-12T21:29:15.451Z,91937.66
2022-09-12T21:32:02.998Z,91945.22
2022-09-12T21:34:50.651Z,91934.88
2022-09-12T21:37:38.197Z,91931.16
2022-09-12T21:40:25.751Z,91936.78
2022-09-12T21:43:13.404Z,91931.75
2022-09-12T21:46:01.003Z,91927.84
2022-09-12T21:48:48.585Z,91929.97
2022-09-12T21:51:36.145Z,91935.09
2022-09-12T21:54:23.711Z,91927.22
2022-09-12T21:57:11.273Z,91936.75
2022-09-12T21:59:58.824Z,91935.66
2022-09-12T22:02:46.409Z,91940.56
2022-09-12T22:05:33.971Z,91950.97
2022-09-12T22:08:21.510Z,91948.81
2022-09-12T22:11:09.087Z,91938.03
2022-09-12T22:13:56.623Z,91941.91
2022-09-12T22:16:44.176Z,91943.81
2022-09-12T22:19:31.731Z,91927.31
2022-09-12T22:22:19.287Z,91926.06
2022-09-12T22:25:06.949Z,91924.06
2022-09-12T22:27:54.490Z,91926.78
2022-09-12T22:30:42.059Z,91929.13
2022-09-12T22:33:29.600Z,91926.88
2022-09-12T22:36:17.198Z,91919.28
2022-09-12T22:39:04.751Z,91924.69
2022-09-12T22:41:52.276Z,91914.75
2022-09-12T22:44:39.915Z,91911.44
2022-09-12T22:47:29.455Z,91904.59
2022-09-12T22:50:17.015Z,91899.41
2022-09-12T22:53:04.570Z,91904.88
2022-09-12T22:55:52.232Z,91903.94
2022-09-12T22:58:39.763Z,91904.78
2022-09-12T23:01:27.336Z,91898.47
2022-09-12T23:04:14.895Z,91890.72
2022-09-12T23:07:02.444Z,91899.59
2022-09-12T23:09:50.018Z,91904.22
2022-09-12T23:12:37.579Z,91899.97
2022-09-12T23:15:25.121Z,91901.09
2022-09-12T23:18:14.692Z,91901.91
2022-09-12T23:21:02.223Z,91897.78
2022-09-12T23:23:49.780Z,91888.06
2022-09-12T23:26:37.347Z,91902.75
2022-09-12T23:29:25.002Z,91899.28
2022-09-12T23:32:12.544Z,91908.03
2022-09-12T23:35:00.114Z,91904.69
2022-09-12T23:37:47.667Z,91908.22
2022-09-12T23:40:35.234Z,91911.28
2022-09-12T23:43:22.773Z,91920.75
2022-09-12T23:46:10.448Z,91923.50
2022-09-12T23:48:57.991Z,91919.13
2022-09-12T23:51:45.558Z,91924.47
2022-09-12T23:54:33.106Z,91925.94
2022-09-12T23:57:20.659Z,91922.13
